createdAt,value
2023-02-08T00:01:08.448Z,103595.16
2023-02-08T00:03:37.271Z,103610.63
2023-02-08T00:06:05.500Z,103608.31
2023-02-08T00:08:34.097Z,103614.97
2023-02-08T00:11:03.245Z,103613.81
2023-02-08T00:13:32.159Z,103611.94
2023-02-08T00:16:03.610Z,103613.00
2023-02-08T00:18:31.419Z,103607.38
2023-02-08T00:20:59.179Z,103604.00
2023-02-08T00:23:27.181Z,103598.72
2023-02-08T00:25:54.989Z,103591.59
2023-02-08T00:28:22.999Z,103593.06
2023-02-08T00:30:50.964Z,103600.28
2023-02-08T00:33:20.122Z,103598.16
2023-02-08T00:35:47.895Z,103594.66
2023-02-08T00:38:15.556Z,103591.06
2023-02-08T00:40:43.643Z,103597.22
2023-02-08T00:43:11.694Z,103602.72
2023-02-08T00:45:39.508Z,103602.25
2023-02-08T00:48:07.286Z,103605.97
2023-02-08T00:50:36.357Z,103599.34
2023-02-08T00:53:04.534Z,103591.06
2023-02-08T00:55:32.436Z,103595.00
2023-02-08T00:58:00.555Z,103588.22
2023-02-08T01:00:28.271Z,103588.75
2023-02-08T01:02:56.104Z,103589.56
2023-02-08T01:05:24.441Z,103586.13
2023-02-08T01:10:39.624Z,103586.75
2023-02-08T01:13:11.217Z,103586.53
2023-02-08T01:15:44.121Z,103580.50
2023-02-08T01:18:12.252Z,103583.88
2023-02-08T01:20:40.133Z,103586.22
2023-02-08T01:23:09.233Z,103588.13
2023-02-08T01:25:37.253Z,103591.53
2023-02-08T01:28:05.315Z,103585.28
2023-02-08T01:30:32.965Z,103591.00
2023-02-08T01:33:00.761Z,103588.25
2023-02-08T01:35:28.381Z,103587.50
2023-02-08T01:37:55.982Z,103587.38
2023-02-08T01:40:25.197Z,103581.25
2023-02-08T01:42:53.152Z,103582.53
2023-02-08T01:45:25.914Z,103589.16
2023-02-08T01:47:58.067Z,103581.56
2023-02-08T01:50:30.182Z,103577.09
2023-02-08T01:52:57.670Z,103576.03
2023-02-08T01:55:29.479Z,103571.19
2023-02-08T01:57:59.985Z,103559.13
2023-02-08T02:00:27.623Z,103575.22
2023-02-08T02:02:56.752Z,103568.00
2023-02-08T02:05:26.613Z,103573.94
2023-02-08T02:07:54.778Z,103577.88
2023-02-08T02:10:26.240Z,103577.88
2023-02-08T02:12:56.123Z,103572.56
2023-02-08T02:15:23.670Z,103578.59
2023-02-08T02:17:51.182Z,103575.75
2023-02-08T02:20:25.382Z,103570.56
2023-02-08T02:23:23.395Z,103569.06
2023-02-08T02:26:07.683Z,103572.25
2023-02-08T02:28:59.671Z,103566.44
2023-02-08T02:31:49.668Z,103570.91
2023-02-08T02:34:20.077Z,103572.16
2023-02-08T02:36:52.886Z,103562.72
2023-02-08T02:39:27.101Z,103554.16
2023-02-08T02:42:15.997Z,103557.31
2023-02-08T02:44:54.092Z,103563.16
2023-02-08T02:47:28.771Z,103554.06
2023-02-08T02:50:05.241Z,103548.69
2023-02-08T02:52:36.855Z,103549.41
2023-02-08T02:55:06.494Z,103554.59
2023-02-08T02:57:36.136Z,103550.66
2023-02-08T03:00:08.570Z,103536.50
2023-02-08T03:02:39.335Z,103542.63
2023-02-08T03:05:08.448Z,103546.66
2023-02-08T03:07:50.681Z,103543.38
2023-02-08T03:10:27.081Z,103544.97
2023-02-08T03:13:00.452Z,103537.56
2023-02-08T03:15:34.371Z,103552.47
2023-02-08T03:18:11.534Z,103546.22
2023-02-08T03:21:36.328Z,103557.25
2023-02-08T03:24:14.363Z,103558.06
2023-02-08T03:26:47.800Z,103551.84
2023-02-08T03:36:50.224Z,103559.97
2023-02-08T03:39:21.328Z,103555.13
2023-02-08T03:41:51.239Z,103564.00
2023-02-08T03:44:22.320Z,103564.09
2023-02-08T03:46:52.170Z,103571.28
2023-02-08T03:49:22.535Z,103566.84
2023-02-08T03:51:52.307Z,103573.81
2023-02-08T03:54:21.844Z,103576.03
2023-02-08T03:56:53.988Z,103577.22
2023-02-08T03:59:24.404Z,103577.22
2023-02-08T04:01:56.272Z,103578.91
2023-02-08T04:04:24.510Z,103576.25
2023-02-08T04:06:53.905Z,103572.31
2023-02-08T04:09:21.518Z,103590.81
2023-02-08T04:11:49.994Z,103589.03
2023-02-08T04:14:17.963Z,103597.16
2023-02-08T04:16:45.713Z,103587.78
2023-02-08T04:19:13.334Z,103599.50
2023-02-08T04:21:40.960Z,103594.09
2023-02-08T04:24:09.967Z,103595.03
2023-02-08T04:26:38.070Z,103596.00
2023-02-08T04:29:05.712Z,103594.31
2023-02-08T04:31:34.001Z,103597.41
2023-02-08T04:34:02.833Z,103589.16
2023-02-08T04:36:30.679Z,103595.72
2023-02-08T04:38:58.748Z,103590.41
2023-02-08T04:41:27.913Z,103599.28
2023-02-08T04:43:55.438Z,103598.25
2023-02-08T04:46:23.688Z,103588.53
2023-02-08T04:48:51.437Z,103595.81
2023-02-08T04:51:19.058Z,103592.97
2023-02-08T04:53:46.684Z,103600.88
2023-02-08T04:56:14.634Z,103586.84
2023-02-08T04:58:43.855Z,103589.59
2023-02-08T05:01:11.796Z,103586.59
2023-02-08T05:03:39.408Z,103587.66
2023-02-08T05:06:07.735Z,103583.75
2023-02-08T05:08:35.294Z,103588.25
2023-02-08T05:11:02.789Z,103603.81
2023-02-08T05:13:30.235Z,103598.63
2023-02-08T05:15:59.079Z,103591.94
2023-02-08T05:18:26.849Z,103601.09
2023-02-08T05:20:58.036Z,103593.22
2023-02-08T05:23:25.987Z,103585.94
2023-02-08T05:25:53.799Z,103588.16
2023-02-08T05:28:21.526Z,103585.06
2023-02-08T05:30:49.529Z,103584.16
2023-02-08T05:33:18.815Z,103577.13
2023-02-08T05:35:46.637Z,103573.44
2023-02-08T05:38:14.178Z,103571.56
2023-02-08T05:40:41.831Z,103578.53
2023-02-08T05:43:09.420Z,103574.19
2023-02-08T05:45:37.004Z,103576.47
2023-02-08T05:48:04.757Z,103575.50
2023-02-08T05:50:33.601Z,103576.34
2023-02-08T05:53:01.084Z,103579.28
2023-02-08T05:55:29.942Z,103578.63
2023-02-08T05:57:57.356Z,103581.38
2023-02-08T06:00:24.830Z,103570.81
2023-02-08T06:02:53.165Z,103576.34
2023-02-08T06:05:20.892Z,103585.47
2023-02-08T06:07:53.603Z,103585.94
2023-02-08T06:10:21.155Z,103577.53
2023-02-08T06:12:48.587Z,103579.63
2023-02-08T06:15:16.049Z,103583.13
2023-02-08T06:17:43.429Z,103587.47
2023-02-08T06:20:11.528Z,103587.75
2023-02-08T06:22:39.237Z,103582.00
2023-02-08T06:25:08.402Z,103583.03
2023-02-08T06:27:35.875Z,103588.19
2023-02-08T06:30:03.556Z,103590.66
2023-02-08T06:32:31.002Z,103601.03
2023-02-08T06:34:58.466Z,103594.03
2023-02-08T06:37:25.852Z,103592.56
2023-02-08T06:39:53.244Z,103588.19
2023-02-08T06:42:21.921Z,103591.63
2023-02-08T06:44:54.983Z,103598.41
2023-02-08T06:47:22.739Z,103599.72
2023-02-08T06:49:50.465Z,103608.56
2023-02-08T06:52:17.802Z,103595.69
2023-02-08T06:54:45.808Z,103598.97
2023-02-08T06:57:13.503Z,103595.13
2023-02-08T06:59:42.789Z,103590.50
2023-02-08T07:02:13.398Z,103595.03
2023-02-08T07:04:40.820Z,103599.88
2023-02-08T07:07:08.601Z,103592.78
2023-02-08T07:09:36.040Z,103596.00
2023-02-08T07:12:05.024Z,103604.47
2023-02-08T07:14:32.529Z,103598.22
2023-02-08T07:17:03.006Z,103596.56
2023-02-08T07:19:30.987Z,103596.28
2023-02-08T07:22:07.459Z,103595.19
2023-02-08T07:24:35.598Z,103593.75
2023-02-08T07:27:03.516Z,103592.53
2023-02-08T07:29:31.203Z,103594.88
2023-02-08T07:31:59.241Z,103586.53
2023-02-08T07:34:30.294Z,103587.19
2023-02-08T07:36:57.745Z,103586.25
2023-02-08T07:39:25.450Z,103582.22
2023-02-08T07:41:52.980Z,103582.47
2023-02-08T07:44:20.333Z,103584.56
2023-02-08T07:46:47.780Z,103582.09
2023-02-08T07:49:15.124Z,103569.75
2023-02-08T07:51:43.914Z,103574.47
2023-02-08T07:54:11.298Z,103570.91
2023-02-08T07:56:38.670Z,103563.28
2023-02-08T07:59:06.044Z,103566.28
2023-02-08T08:01:33.677Z,103568.16
2023-02-08T08:04:03.163Z,103571.34
2023-02-08T08:06:30.656Z,103572.56
2023-02-08T08:08:59.405Z,103566.66
2023-02-08T08:11:26.887Z,103570.88
2023-02-08T08:13:54.277Z,103564.75
2023-02-08T08:16:21.845Z,103560.03
2023-02-08T08:18:50.621Z,103565.94
2023-02-08T08:21:18.102Z,103552.88
2023-02-08T08:23:45.528Z,103558.72
2023-02-08T08:26:15.713Z,103558.50
2023-02-08T08:28:43.228Z,103564.06
2023-02-08T08:31:11.560Z,103561.13
2023-02-08T08:33:39.035Z,103565.41
2023-02-08T08:36:06.935Z,103559.56
2023-02-08T08:38:34.304Z,103561.25
2023-02-08T08:41:04.191Z,103564.16
2023-02-08T08:43:32.856Z,103559.69
2023-02-08T08:46:00.296Z,103560.00
2023-02-08T08:48:27.668Z,103556.91
2023-02-08T08:50:55.429Z,103556.25
2023-02-08T08:53:22.970Z,103553.19
2023-02-08T08:55:50.359Z,103553.31
2023-02-08T08:58:17.757Z,103550.88
2023-02-08T09:00:46.460Z,103542.13
2023-02-08T09:03:13.901Z,103554.41
2023-02-08T09:05:41.350Z,103564.13
2023-02-08T09:08:08.838Z,103566.34
2023-02-08T09:10:36.253Z,103564.72
2023-02-08T09:13:04.233Z,103565.88
2023-02-08T09:15:31.674Z,103570.09
2023-02-08T09:18:00.403Z,103566.63
2023-02-08T09:20:27.764Z,103568.44
2023-02-08T09:22:55.240Z,103564.63
2023-02-08T09:25:22.673Z,103565.69
2023-02-08T09:27:50.076Z,103559.13
2023-02-08T09:30:17.444Z,103557.53
2023-02-08T09:32:45.335Z,103561.66
2023-02-08T09:35:15.286Z,103553.22
2023-02-08T09:37:42.681Z,103558.81
2023-02-08T09:40:20.798Z,103560.94
2023-02-08T09:42:56.231Z,103561.97
2023-02-08T09:45:41.358Z,103562.41
2023-02-08T09:48:22.126Z,103570.97
2023-02-08T09:50:54.323Z,103572.09
2023-02-08T09:53:25.746Z,103574.13
2023-02-08T09:55:57.693Z,103570.31
2023-02-08T09:58:28.701Z,103560.47
2023-02-08T10:00:56.714Z,103558.06
2023-02-08T10:03:34.288Z,103556.44
2023-02-08T10:06:04.064Z,103558.63
2023-02-08T10:08:35.636Z,103558.75
2023-02-08T10:11:10.791Z,103556.84
2023-02-08T10:13:57.429Z,103558.44
2023-02-08T10:16:39.546Z,103553.84
2023-02-08T10:19:12.973Z,103555.78
2023-02-08T10:21:52.964Z,103545.28
2023-02-08T10:24:40.650Z,103554.81
2023-02-08T10:27:14.786Z,103546.31
2023-02-08T10:29:53.219Z,103549.28
2023-02-08T10:32:35.237Z,103541.84
2023-02-08T10:35:05.367Z,103536.81
2023-02-08T10:37:35.881Z,103546.22
2023-02-08T10:40:16.727Z,103549.59
2023-02-08T10:42:47.214Z,103546.94
2023-02-08T10:45:24.608Z,103544.19
2023-02-08T10:47:54.227Z,103534.66
2023-02-08T10:50:24.095Z,103535.91
2023-02-08T10:52:52.778Z,103523.75
2023-02-08T10:55:22.224Z,103528.72
2023-02-08T10:57:52.329Z,103526.47
2023-02-08T11:00:22.210Z,103533.13
2023-02-08T11:02:52.664Z,103530.22
2023-02-08T11:05:23.250Z,103536.88
2023-02-08T11:08:06.129Z,103536.88
2023-02-08T11:10:34.507Z,103527.75
2023-02-08T11:13:05.586Z,103537.16
2023-02-08T11:15:39.479Z,103532.69
2023-02-08T11:18:08.240Z,103534.66
2023-02-08T11:20:37.619Z,103520.53
2023-02-08T11:23:07.420Z,103519.72
2023-02-08T11:25:38.024Z,103525.63
2023-02-08T11:28:06.761Z,103525.28
2023-02-08T11:30:34.341Z,103517.81
2023-02-08T11:33:20.419Z,103510.47
2023-02-08T11:36:05.613Z,103513.50
2023-02-08T11:38:35.826Z,103510.84
2023-02-08T11:41:04.618Z,103505.88
2023-02-08T11:43:34.360Z,103512.41
2023-02-08T11:46:03.835Z,103515.56
2023-02-08T11:48:40.408Z,103512.75
2023-02-08T11:51:08.176Z,103524.38
2023-02-08T11:53:39.541Z,103508.78
2023-02-08T11:56:17.372Z,103508.19
2023-02-08T11:58:57.389Z,103502.16
2023-02-08T12:01:28.669Z,103501.09
2023-02-08T12:03:57.665Z,103492.41
2023-02-08T12:06:41.199Z,103499.13
2023-02-08T12:09:17.597Z,103490.09
2023-02-08T12:11:47.110Z,103494.69
2023-02-08T12:14:26.788Z,103489.47
2023-02-08T12:17:05.842Z,103483.59
2023-02-08T12:20:03.341Z,103482.00
2023-02-08T12:22:31.943Z,103485.41
2023-02-08T12:25:11.217Z,103477.19
2023-02-08T12:27:43.716Z,103478.25
2023-02-08T12:30:18.950Z,103472.72
2023-02-08T12:32:56.704Z,103470.91
2023-02-08T12:35:51.044Z,103462.69
2023-02-08T12:38:55.860Z,103463.06
2023-02-08T12:41:31.731Z,103463.06
2023-02-08T12:44:06.254Z,103459.06
2023-02-08T12:46:52.610Z,103457.25
2023-02-08T12:49:30.711Z,103453.50
2023-02-08T12:52:08.208Z,103448.31
2023-02-08T12:54:40.135Z,103442.03
2023-02-08T12:57:13.288Z,103443.81
2023-02-08T12:59:44.180Z,103436.25
2023-02-08T13:02:16.304Z,103428.97
2023-02-08T13:04:47.192Z,103430.94
2023-02-08T13:07:17.872Z,103418.63
2023-02-08T13:09:50.631Z,103413.63
2023-02-08T13:12:22.025Z,103417.25
2023-02-08T13:14:52.674Z,103415.81
2023-02-08T13:17:23.301Z,103413.16
2023-02-08T13:20:00.275Z,103410.09
2023-02-08T13:22:28.637Z,103395.97
2023-02-08T13:25:08.953Z,103395.66
2023-02-08T13:27:38.038Z,103396.47
2023-02-08T13:30:07.054Z,103386.09
2023-02-08T13:32:37.853Z,103381.75
2023-02-08T13:35:14.738Z,103373.91
2023-02-08T13:37:42.568Z,103379.09
2023-02-08T13:40:21.448Z,103362.69
2023-02-08T13:42:53.683Z,103356.88
2023-02-08T13:45:26.455Z,103356.97
2023-02-08T13:47:58.459Z,103357.09
2023-02-08T13:50:46.980Z,103356.75
2023-02-08T13:53:15.882Z,103341.16
2023-02-08T13:55:56.197Z,103341.91
2023-02-08T13:58:39.947Z,103346.28
2023-02-08T14:01:16.283Z,103337.88
2023-02-08T14:03:43.921Z,103344.63
2023-02-08T14:06:19.136Z,103338.72
2023-02-08T14:08:54.485Z,103341.84
2023-02-08T14:11:40.416Z,103338.94
2023-02-08T14:14:17.779Z,103332.91
2023-02-08T14:16:45.836Z,103337.75
2023-02-08T14:19:23.895Z,103336.06
2023-02-08T14:22:01.204Z,103332.31
2023-02-08T14:24:34.022Z,103333.13
2023-02-08T14:27:09.705Z,103324.28
2023-02-08T14:29:39.145Z,103323.16
2023-02-08T14:32:07.135Z,103315.06
2023-02-08T14:34:36.742Z,103324.16
2023-02-08T14:37:07.401Z,103324.03
2023-02-08T14:39:37.155Z,103324.56
2023-02-08T14:42:08.628Z,103323.56
2023-02-08T14:44:59.731Z,103318.63
2023-02-08T14:48:17.647Z,103310.63
2023-02-08T14:50:59.250Z,103313.53
2023-02-08T14:53:32.472Z,103312.63
2023-02-08T14:56:06.598Z,103306.78
2023-02-08T14:58:36.672Z,103308.31
2023-02-08T15:01:09.074Z,103307.66
2023-02-08T15:03:36.985Z,103309.72
2023-02-08T15:06:34.978Z,103300.44
2023-02-08T15:09:03.085Z,103299.66
2023-02-08T15:11:32.514Z,103287.84
2023-02-08T15:14:02.054Z,103284.50
2023-02-08T15:16:35.668Z,103279.06
2023-02-08T15:19:04.639Z,103285.41
2023-02-08T15:21:37.341Z,103275.09
2023-02-08T15:24:07.956Z,103278.31
2023-02-08T15:26:36.179Z,103272.13
2023-02-08T15:29:04.185Z,103271.94
2023-02-08T15:31:34.994Z,103269.34
2023-02-08T15:34:02.990Z,103265.91
2023-02-08T15:36:31.951Z,103260.88
2023-02-08T15:39:02.967Z,103259.47
2023-02-08T15:41:33.942Z,103260.78
2023-02-08T15:44:04.189Z,103257.16
2023-02-08T15:46:32.286Z,103261.94
2023-02-08T15:49:01.316Z,103256.22
2023-02-08T15:51:29.861Z,103259.47
2023-02-08T15:53:58.079Z,103261.81
2023-02-08T15:56:36.515Z,103259.41
2023-02-08T15:59:06.726Z,103255.06
2023-02-08T16:01:34.566Z,103258.88
2023-02-08T16:04:06.013Z,103249.22
2023-02-08T16:06:38.248Z,103251.63
2023-02-08T16:09:06.872Z,103258.03
2023-02-08T16:11:36.505Z,103245.38
2023-02-08T16:14:05.539Z,103251.69
2023-02-08T16:16:40.597Z,103257.22
2023-02-08T16:19:21.405Z,103254.31
2023-02-08T16:21:48.994Z,103257.69
2023-02-08T16:24:22.529Z,103254.06
2023-02-08T16:26:56.455Z,103252.16
2023-02-08T16:29:26.370Z,103249.78
2023-02-08T16:32:00.971Z,103243.38
2023-02-08T16:34:31.057Z,103240.09
2023-02-08T16:36:59.226Z,103238.47
2023-02-08T16:39:39.385Z,103245.69
2023-02-08T16:42:15.462Z,103242.91
2023-02-08T16:45:03.220Z,103241.53
2023-02-08T16:47:36.941Z,103242.97
2023-02-08T16:50:06.616Z,103237.72
2023-02-08T16:52:34.601Z,103241.91
2023-02-08T16:55:02.319Z,103227.06
2023-02-08T16:57:40.476Z,103216.75
2023-02-08T17:00:16.014Z,103223.59
2023-02-08T17:02:43.395Z,103219.63
2023-02-08T17:05:12.066Z,103213.38
2023-02-08T17:07:39.611Z,103219.78
2023-02-08T17:10:09.087Z,103228.13
2023-02-08T17:12:37.185Z,103221.13
2023-02-08T17:15:04.925Z,103218.38
2023-02-08T17:17:32.321Z,103211.41
2023-02-08T17:19:59.756Z,103208.91
2023-02-08T17:22:28.550Z,103215.31
2023-02-08T17:24:55.957Z,103209.53
2023-02-08T17:27:23.694Z,103214.09
2023-02-08T17:29:52.801Z,103202.66
2023-02-08T17:32:20.232Z,103190.19
2023-02-08T17:34:47.616Z,103180.53
2023-02-08T17:37:15.132Z,103169.34
2023-02-08T17:39:48.901Z,103168.28
2023-02-08T17:42:17.871Z,103165.59
2023-02-08T17:44:45.431Z,103158.75
2023-02-08T17:47:12.892Z,103164.88
2023-02-08T17:49:40.335Z,103156.34
2023-02-08T17:52:07.804Z,103161.28
2023-02-08T17:54:37.331Z,103152.72
2023-02-08T17:57:08.517Z,103156.22
2023-02-08T17:59:36.723Z,103151.03
2023-02-08T18:02:04.273Z,103147.56
2023-02-08T18:04:31.770Z,103152.88
2023-02-08T18:06:59.422Z,103144.44
2023-02-08T18:09:27.045Z,103119.53
2023-02-08T18:11:54.449Z,103128.78
2023-02-08T18:14:23.314Z,103136.75
2023-02-08T18:16:50.713Z,103133.03
2023-02-08T18:19:18.831Z,103144.22
2023-02-08T18:21:46.344Z,103143.63
2023-02-08T18:24:13.865Z,103143.00
2023-02-08T18:26:41.341Z,103148.97
2023-02-08T18:29:08.721Z,103147.56
2023-02-08T18:31:37.705Z,103143.13
2023-02-08T18:34:05.358Z,103138.44
2023-02-08T18:36:34.521Z,103124.59
2023-02-08T18:39:02.079Z,103118.44
2023-02-08T18:41:30.994Z,103120.63
2023-02-08T18:43:59.297Z,103110.66
2023-02-08T18:46:28.284Z,103119.78
2023-02-08T18:48:57.931Z,103120.59
2023-02-08T18:51:28.719Z,103123.78
2023-02-08T18:53:56.739Z,103124.00
2023-02-08T18:56:25.918Z,103125.81
2023-02-08T18:58:54.057Z,103129.53
2023-02-08T19:01:23.293Z,103116.78
2023-02-08T19:03:51.782Z,103134.81
2023-02-08T19:06:24.360Z,103115.97
2023-02-08T19:08:52.660Z,103117.84
2023-02-08T19:11:21.680Z,103108.63
2023-02-08T19:13:49.586Z,103100.66
2023-02-08T19:16:18.069Z,103104.88
2023-02-08T19:18:45.907Z,103101.25
2023-02-08T19:21:16.911Z,103101.50
2023-02-08T19:23:46.379Z,103093.31
2023-02-08T19:26:17.067Z,103097.78
2023-02-08T19:28:44.537Z,103095.72
2023-02-08T19:31:13.616Z,103093.06
2023-02-08T19:33:44.007Z,103094.97
2023-02-08T19:36:13.313Z,103094.97
2023-02-08T19:38:41.277Z,103081.75
2023-02-08T19:41:15.149Z,103084.97
2023-02-08T19:43:42.710Z,103090.88
2023-02-08T19:46:11.201Z,103084.88
2023-02-08T19:48:38.846Z,103081.84
2023-02-08T19:51:07.069Z,103082.34
2023-02-08T19:53:34.681Z,103087.16
2023-02-08T19:56:05.240Z,103077.63
2023-02-08T19:58:35.030Z,103070.31
2023-02-08T20:01:07.386Z,103061.88
2023-02-08T20:03:35.160Z,103056.16
2023-02-08T20:06:02.726Z,103051.69
2023-02-08T20:08:30.643Z,103061.78
2023-02-08T20:10:58.092Z,103061.50
2023-02-08T20:13:25.795Z,103045.91
2023-02-08T20:15:59.697Z,103048.56
2023-02-08T20:18:27.200Z,103047.09
2023-02-08T20:21:03.274Z,103049.63
2023-02-08T20:23:31.034Z,103053.84
2023-02-08T20:26:10.143Z,103046.97
2023-02-08T20:28:38.439Z,103046.72
2023-02-08T20:31:12.745Z,103047.09
2023-02-08T20:33:40.375Z,103047.06
2023-02-08T20:36:09.671Z,103044.81
2023-02-08T20:38:38.175Z,103041.81
2023-02-08T20:41:07.259Z,103033.75
2023-02-08T20:43:35.099Z,103051.53
2023-02-08T20:46:04.482Z,103043.38
2023-02-08T20:48:36.332Z,103038.56
2023-02-08T20:51:08.110Z,103039.28
2023-02-08T20:53:35.757Z,103045.78
2023-02-08T20:56:06.136Z,103044.47
2023-02-08T20:58:33.705Z,103040.34
2023-02-08T21:01:03.571Z,103036.03
2023-02-08T21:03:31.017Z,103040.59
2023-02-08T21:05:59.813Z,103032.78
2023-02-08T21:08:27.250Z,103028.00
2023-02-08T21:10:55.969Z,103027.84
2023-02-08T21:13:23.420Z,103024.09
2023-02-08T21:15:51.017Z,103029.66
2023-02-08T21:18:19.319Z,103028.19
2023-02-08T21:20:48.054Z,103023.25
2023-02-08T21:25:59.279Z,103020.28
2023-02-08T21:29:07.380Z,103022.53
2023-02-08T21:31:36.538Z,103026.53
2023-02-08T21:34:04.827Z,103013.75
2023-02-08T21:36:33.245Z,103007.53
2023-02-08T21:39:01.336Z,103001.28
2023-02-08T21:41:32.866Z,103004.41
2023-02-08T21:44:04.399Z,103000.31
2023-02-08T21:46:33.031Z,102993.19
2023-02-08T21:49:21.978Z,102983.25
2023-02-08T21:52:07.050Z,102988.06
2023-02-08T21:54:45.819Z,102978.56
2023-02-08T21:57:19.287Z,102989.75
2023-02-08T21:59:47.572Z,102981.34
2023-02-08T22:04:50.736Z,102978.69
2023-02-08T22:07:18.500Z,102974.63
2023-02-08T22:12:29.300Z,102973.66
2023-02-08T22:14:56.906Z,102963.09
2023-02-08T22:17:24.796Z,102964.19
2023-02-08T22:19:52.638Z,102965.75
2023-02-08T22:25:21.140Z,102956.84
2023-02-08T22:27:50.352Z,102948.44
2023-02-08T22:30:24.436Z,102951.06
2023-02-08T22:32:53.216Z,102943.75
2023-02-08T22:35:21.025Z,102947.84
2023-02-08T22:37:48.635Z,102943.88
2023-02-08T22:40:16.403Z,102944.84
2023-02-08T22:42:44.072Z,102941.22
2023-02-08T22:45:13.365Z,102927.44
2023-02-08T22:47:41.159Z,102924.28
2023-02-08T22:50:09.388Z,102934.00
2023-02-08T22:52:37.175Z,102928.50
2023-02-08T22:55:06.173Z,102927.75
2023-02-08T22:57:35.460Z,102930.41
2023-02-08T23:00:03.369Z,102919.59
2023-02-08T23:02:33.268Z,102907.00
2023-02-08T23:07:42.373Z,102919.72
2023-02-08T23:10:11.177Z,102912.16
2023-02-08T23:12:38.776Z,102917.44
2023-02-08T23:15:06.787Z,102911.66
2023-02-08T23:17:38.582Z,102920.31
2023-02-08T23:20:06.588Z,102914.31
2023-02-08T23:22:37.590Z,102907.34
2023-02-08T23:25:05.744Z,102902.78
2023-02-08T23:27:33.253Z,102911.22
2023-02-08T23:30:01.126Z,102910.94
2023-02-08T23:32:28.753Z,102903.41
2023-02-08T23:35:27.113Z,102894.84
2023-02-08T23:37:54.818Z,102891.25
2023-02-08T23:42:57.787Z,102893.97
2023-02-08T23:45:25.324Z,102878.75
2023-02-08T23:48:30.543Z,102884.38
2023-02-08T23:50:59.892Z,102885.00
2023-02-08T23:53:31.411Z,102887.66
2023-02-08T23:56:07.787Z,102876.22
